createdAt,value
2018-12-08T05:00:29.283Z,971.87
2018-12-08T05:01:29.371Z,971.75
2018-12-08T05:02:29.256Z,971.71
2018-12-08T05:03:29.240Z,971.79
2018-12-08T05:04:29.227Z,971.83
2018-12-08T05:05:29.268Z,971.79
2018-12-08T05:06:29.205Z,971.83
2018-12-08T05:07:29.197Z,971.90
2018-12-08T05:08:29.186Z,971.80
2018-12-08T05:09:29.176Z,971.97
2018-12-08T05:10:29.175Z,971.84
2018-12-08T05:11:29.151Z,971.83
2018-12-08T05:12:29.139Z,971.85
2018-12-08T05:13:29.125Z,971.81
2018-12-08T05:14:29.114Z,971.91
2018-12-08T05:15:29.123Z,972.01
2018-12-08T05:16:29.094Z,971.86
2018-12-08T05:17:29.084Z,971.89
2018-12-08T05:18:29.071Z,971.88
2018-12-08T05:19:29.059Z,971.96
2018-12-08T05:20:29.058Z,971.91
2018-12-08T05:21:29.036Z,972.03
2018-12-08T05:22:29.026Z,971.92
2018-12-08T05:23:29.012Z,971.90
2018-12-08T05:24:29.002Z,972.02
2018-12-08T05:25:29.002Z,971.91
2018-12-08T05:26:28.981Z,971.93
2018-12-08T05:27:28.968Z,971.88
2018-12-08T05:28:28.956Z,971.87
2018-12-08T05:29:28.945Z,971.85
2018-12-08T05:30:28.952Z,971.93
2018-12-08T05:31:28.922Z,971.76
2018-12-08T05:32:28.911Z,971.81
2018-12-08T05:33:28.909Z,971.84
2018-12-08T05:34:28.888Z,971.84
2018-12-08T05:35:28.891Z,971.88
2018-12-08T05:36:28.866Z,971.80
2018-12-08T05:37:28.854Z,971.83
2018-12-08T05:38:28.844Z,971.86
2018-12-08T05:39:28.840Z,971.92
2018-12-08T05:40:28.837Z,971.87
2018-12-08T05:41:28.810Z,971.91
2018-12-08T05:42:28.798Z,971.92
2018-12-08T05:43:28.787Z,971.83
2018-12-08T05:44:28.772Z,971.91
2018-12-08T05:45:28.776Z,971.89
2018-12-08T05:46:28.749Z,971.87
2018-12-08T05:47:28.738Z,971.84
2018-12-08T05:48:28.748Z,971.87
2018-12-08T05:49:28.715Z,971.86
2018-12-08T05:50:28.720Z,971.74
2018-12-08T05:51:28.692Z,971.75
2018-12-08T05:52:28.682Z,971.71
2018-12-08T05:53:28.675Z,971.81
2018-12-08T05:54:28.663Z,971.86
2018-12-08T05:55:28.676Z,971.88
2018-12-08T05:56:28.637Z,971.94
2018-12-08T05:57:28.627Z,971.99
2018-12-08T05:58:28.699Z,972.00
2018-12-08T05:59:28.619Z,971.96
2018-12-08T06:00:28.613Z,972.00
2018-12-08T06:01:28.580Z,972.05
2018-12-08T06:02:28.573Z,972.06
2018-12-08T06:03:28.563Z,972.11
2018-12-08T06:04:28.543Z,972.08
2018-12-08T06:05:28.546Z,972.16
2018-12-08T06:06:28.523Z,972.20
2018-12-08T06:07:28.513Z,972.15
2018-12-08T06:08:28.502Z,972.12
2018-12-08T06:09:28.491Z,971.97
2018-12-08T06:10:28.490Z,972.02
2018-12-08T06:11:28.467Z,971.98
2018-12-08T06:12:28.455Z,971.94
2018-12-08T06:13:28.448Z,971.96
2018-12-08T06:14:28.433Z,971.80
2018-12-08T06:15:28.441Z,971.92
2018-12-08T06:16:28.411Z,971.94
2018-12-08T06:17:28.399Z,971.93
2018-12-08T06:18:28.477Z,971.98
2018-12-08T06:19:28.376Z,971.95
2018-12-08T06:20:28.378Z,971.98
2018-12-08T06:21:28.353Z,971.94
2018-12-08T06:22:28.345Z,971.96
2018-12-08T06:23:28.328Z,971.93
2018-12-08T06:24:28.322Z,971.92
2018-12-08T06:25:28.322Z,971.82
2018-12-08T06:26:28.299Z,971.78
2018-12-08T06:27:28.286Z,971.81
2018-12-08T06:28:28.277Z,971.80
2018-12-08T06:29:28.263Z,971.91
2018-12-08T06:30:28.266Z,971.87
2018-12-08T06:31:28.241Z,971.87
2018-12-08T06:32:28.229Z,971.96
2018-12-08T06:33:28.222Z,971.95
2018-12-08T06:34:28.210Z,972.08
2018-12-08T06:35:28.214Z,972.01
2018-12-08T06:36:28.188Z,971.99
2018-12-08T06:37:28.173Z,971.93
2018-12-08T06:38:28.167Z,971.91
2018-12-08T06:39:28.151Z,971.94
2018-12-08T06:40:29.385Z,971.88
2018-12-08T06:41:28.129Z,971.90
2018-12-08T06:42:28.119Z,971.99
2018-12-08T06:43:28.110Z,971.88
2018-12-08T06:44:28.096Z,971.87
2018-12-08T06:45:28.095Z,971.84
2018-12-08T06:46:28.073Z,971.76
2018-12-08T06:47:28.061Z,971.76
2018-12-08T06:48:28.045Z,971.78
2018-12-08T06:49:28.035Z,971.74
2018-12-08T06:50:28.058Z,971.77
2018-12-08T06:51:28.017Z,971.85
2018-12-08T06:52:28.005Z,971.87
2018-12-08T06:53:27.993Z,971.88
2018-12-08T06:54:27.980Z,971.74
2018-12-08T06:55:27.971Z,971.81
2018-12-08T06:56:27.973Z,971.85
2018-12-08T06:57:27.947Z,971.90
2018-12-08T06:58:27.933Z,971.90
2018-12-08T06:59:27.926Z,971.89
2018-12-08T07:00:27.911Z,971.91
2018-12-08T07:01:27.914Z,971.94
2018-12-08T07:02:27.886Z,972.01
2018-12-08T07:03:27.876Z,972.00
2018-12-08T07:04:27.867Z,971.93
2018-12-08T07:05:27.856Z,971.96
2018-12-08T07:06:27.858Z,971.88
2018-12-08T07:07:27.833Z,971.95
2018-12-08T07:08:27.823Z,971.96
2018-12-08T07:09:27.810Z,971.86
2018-12-08T07:10:27.798Z,971.90
2018-12-08T07:11:27.802Z,971.88
2018-12-08T07:12:28.322Z,971.84
2018-12-08T07:13:27.765Z,971.81
2018-12-08T07:14:27.752Z,971.84
2018-12-08T07:15:27.740Z,971.75
2018-12-08T07:16:27.760Z,971.83
2018-12-08T07:17:27.718Z,971.79
2018-12-08T07:18:27.710Z,971.80
2018-12-08T07:19:27.695Z,971.81
2018-12-08T07:20:27.687Z,971.81
2018-12-08T07:21:27.685Z,971.85
2018-12-08T07:22:27.665Z,971.72
2018-12-08T07:23:27.646Z,971.68
2018-12-08T07:24:27.640Z,971.65
2018-12-08T07:25:27.637Z,971.68
2018-12-08T07:26:27.628Z,971.65
2018-12-08T07:27:27.611Z,971.65
2018-12-08T07:28:27.593Z,971.66
2018-12-08T07:29:27.582Z,971.59
2018-12-08T07:30:27.571Z,971.60
2018-12-08T07:31:27.572Z,971.57
2018-12-08T07:32:27.547Z,971.55
2018-12-08T07:33:27.538Z,971.60
2018-12-08T07:34:27.526Z,971.54
2018-12-08T07:35:27.520Z,971.61
2018-12-08T07:36:27.519Z,971.57
2018-12-08T07:37:27.496Z,971.52
2018-12-08T07:38:27.480Z,971.58
2018-12-08T07:39:27.474Z,971.56
2018-12-08T07:40:27.457Z,971.71
2018-12-08T07:41:27.461Z,971.54
2018-12-08T07:42:27.435Z,971.57
2018-12-08T07:43:27.425Z,971.52
2018-12-08T07:44:27.414Z,971.60
2018-12-08T07:45:27.402Z,971.75
2018-12-08T07:46:27.422Z,971.56
2018-12-08T07:47:27.384Z,971.58
2018-12-08T07:48:27.370Z,971.52
2018-12-08T07:49:27.372Z,971.54
2018-12-08T07:50:27.337Z,971.36
2018-12-08T07:51:27.345Z,971.41
2018-12-08T07:52:27.322Z,971.28
2018-12-08T07:53:27.318Z,971.34
2018-12-08T07:54:27.822Z,971.31
2018-12-08T07:55:27.289Z,971.36
2018-12-08T07:56:27.289Z,971.38
2018-12-08T07:57:27.265Z,971.41
2018-12-08T07:58:27.253Z,971.36
2018-12-08T07:59:27.242Z,971.22
2018-12-08T08:00:27.227Z,971.24
2018-12-08T08:01:27.231Z,971.30
2018-12-08T08:02:27.204Z,971.35
2018-12-08T08:03:27.195Z,971.32
2018-12-08T08:04:27.177Z,971.27
2018-12-08T08:05:27.162Z,971.36
2018-12-08T08:06:27.271Z,971.25
2018-12-08T08:07:27.148Z,971.24
2018-12-08T08:08:27.136Z,971.18
2018-12-08T08:09:27.125Z,971.22
2018-12-08T08:10:27.112Z,971.29
2018-12-08T08:11:27.122Z,971.24
2018-12-08T08:12:27.091Z,971.14
2018-12-08T08:13:27.085Z,971.30
2018-12-08T08:14:27.069Z,971.16
2018-12-08T08:15:27.102Z,971.07
2018-12-08T08:16:27.058Z,971.19
2018-12-08T08:17:27.045Z,971.23
2018-12-08T08:18:27.030Z,971.31
2018-12-08T08:19:27.012Z,971.17
2018-12-08T08:20:27.002Z,971.34
2018-12-08T08:21:27.003Z,971.34
2018-12-08T08:22:26.979Z,971.16
2018-12-08T08:23:26.967Z,971.21
2018-12-08T08:24:26.964Z,971.26
2018-12-08T08:25:26.946Z,971.21
2018-12-08T08:26:26.944Z,971.19
2018-12-08T08:27:26.933Z,971.24
2018-12-08T08:28:26.913Z,971.30
2018-12-08T08:29:26.903Z,971.21
2018-12-08T08:30:26.892Z,971.30
2018-12-08T08:31:26.889Z,971.24
2018-12-08T08:32:26.865Z,971.18
2018-12-08T08:33:28.469Z,971.32
2018-12-08T08:34:26.842Z,971.30
2018-12-08T08:35:27.191Z,971.22
2018-12-08T08:36:26.835Z,971.31
2018-12-08T08:37:26.810Z,971.37
2018-12-08T08:38:26.801Z,971.22
2018-12-08T08:39:26.786Z,971.27
2018-12-08T08:40:26.774Z,971.33
2018-12-08T08:41:26.759Z,971.27
2018-12-08T08:42:26.740Z,971.29
2018-12-08T08:43:26.743Z,971.27
2018-12-08T08:44:26.730Z,971.22
2018-12-08T08:45:26.720Z,971.09
2018-12-08T08:46:26.729Z,971.18
2018-12-08T08:47:26.701Z,971.19
2018-12-08T08:48:26.685Z,971.09
2018-12-08T08:49:26.674Z,971.12
2018-12-08T08:50:26.662Z,971.19
2018-12-08T08:51:26.684Z,970.98
2018-12-08T08:52:26.642Z,970.95
2018-12-08T08:53:26.635Z,971.00
2018-12-08T08:54:26.636Z,971.08
2018-12-08T08:55:26.605Z,970.96
2018-12-08T08:56:26.600Z,970.87
2018-12-08T08:57:26.595Z,970.77
2018-12-08T08:58:26.571Z,970.77
2018-12-08T08:59:26.560Z,970.76
2018-12-08T09:00:26.550Z,970.74
2018-12-08T09:01:26.537Z,970.65
2018-12-08T09:02:26.539Z,970.83
2018-12-08T09:03:26.515Z,970.76
2018-12-08T09:04:26.501Z,970.76
2018-12-08T09:05:26.510Z,970.83
2018-12-08T09:06:26.477Z,970.83
2018-12-08T09:07:26.477Z,970.78
2018-12-08T09:08:26.461Z,970.94
2018-12-08T09:09:27.439Z,970.88
2018-12-08T09:10:26.432Z,970.98
2018-12-08T09:11:26.421Z,970.85
2018-12-08T09:12:26.430Z,970.87
2018-12-08T09:13:26.399Z,970.89
2018-12-08T09:14:26.387Z,970.95
2018-12-08T09:15:26.376Z,970.95
2018-12-08T09:16:26.927Z,970.92
2018-12-08T09:17:29.086Z,970.97
2018-12-08T09:18:26.341Z,971.09
2018-12-08T09:19:28.642Z,970.99
2018-12-08T09:20:26.319Z,970.86
2018-12-08T09:21:26.307Z,970.87
2018-12-08T09:22:26.310Z,970.76
2018-12-08T09:23:27.537Z,970.77
2018-12-08T09:24:26.273Z,970.80
2018-12-08T09:25:26.252Z,970.79
2018-12-08T09:26:26.258Z,970.76
2018-12-08T09:27:26.254Z,970.86
2018-12-08T09:28:26.234Z,970.74
2018-12-08T09:29:26.217Z,970.85
2018-12-08T09:30:26.207Z,970.80
2018-12-08T09:31:26.196Z,970.87
2018-12-08T09:32:26.208Z,970.87
2018-12-08T09:33:26.173Z,970.98
2018-12-08T09:34:26.227Z,970.91
2018-12-08T09:35:26.228Z,970.85
2018-12-08T09:36:26.179Z,970.85
2018-12-08T09:37:26.151Z,970.84
2018-12-08T09:38:26.136Z,970.83
2018-12-08T09:39:28.895Z,970.85
2018-12-08T09:40:26.095Z,970.80
2018-12-08T09:41:26.082Z,970.77
2018-12-08T09:42:26.084Z,970.77
2018-12-08T09:43:26.061Z,970.72
2018-12-08T09:44:26.036Z,970.76
2018-12-08T09:45:26.040Z,970.77
2018-12-08T09:46:26.026Z,970.65
2018-12-08T09:47:26.032Z,970.59
2018-12-08T09:48:26.004Z,970.58
2018-12-08T09:49:25.992Z,970.69
2018-12-08T09:50:25.984Z,970.65
2018-12-08T09:51:25.971Z,970.58
2018-12-08T09:52:25.970Z,970.53
2018-12-08T09:53:25.946Z,970.58
2018-12-08T09:54:25.935Z,970.76
2018-12-08T09:55:25.924Z,970.67
2018-12-08T09:56:25.912Z,970.74
2018-12-08T09:57:25.914Z,970.73
2018-12-08T09:58:25.886Z,970.68
2018-12-08T09:59:25.883Z,970.65
2018-12-08T10:00:25.864Z,970.78
2018-12-08T10:01:25.860Z,970.69
2018-12-08T10:02:25.858Z,970.68
2018-12-08T10:03:25.832Z,970.68
2018-12-08T10:04:25.827Z,970.66
2018-12-08T10:05:25.815Z,970.67
2018-12-08T10:06:25.796Z,970.54
2018-12-08T10:07:25.803Z,970.65
2018-12-08T10:08:25.775Z,970.57
2018-12-08T10:09:25.762Z,970.54
2018-12-08T10:10:25.756Z,970.59
2018-12-08T10:11:25.743Z,970.61
2018-12-08T10:12:25.744Z,970.61
2018-12-08T10:13:25.716Z,970.71
2018-12-08T10:14:25.706Z,970.69
2018-12-08T10:15:25.702Z,970.55
2018-12-08T10:16:25.685Z,970.61
2018-12-08T10:17:25.689Z,970.51
2018-12-08T10:18:25.661Z,970.50
2018-12-08T10:19:25.653Z,970.52
2018-12-08T10:20:25.639Z,970.51
2018-12-08T10:21:25.618Z,970.52
2018-12-08T10:22:25.628Z,970.58
2018-12-08T10:23:25.607Z,970.46
2018-12-08T10:24:25.596Z,970.59
2018-12-08T10:25:28.604Z,970.59
2018-12-08T10:26:25.571Z,970.54
2018-12-08T10:27:25.601Z,970.55
2018-12-08T10:28:25.533Z,970.45
2018-12-08T10:29:25.539Z,970.59
2018-12-08T10:30:25.525Z,970.45
2018-12-08T10:31:25.520Z,970.50
2018-12-08T10:32:27.576Z,970.59
2018-12-08T10:33:25.494Z,970.55
2018-12-08T10:34:25.514Z,970.44
2018-12-08T10:35:25.470Z,970.44
2018-12-08T10:36:25.457Z,970.55
2018-12-08T10:37:25.464Z,970.59
2018-12-08T10:38:25.439Z,970.60
2018-12-08T10:39:25.425Z,970.54
2018-12-08T10:40:25.413Z,970.51
2018-12-08T10:41:25.409Z,970.53
2018-12-08T10:42:25.404Z,970.59
2018-12-08T10:43:25.379Z,970.44
2018-12-08T10:44:25.367Z,970.40
2018-12-08T10:45:25.358Z,970.36
2018-12-08T10:46:25.345Z,970.40
2018-12-08T10:47:25.345Z,970.35
2018-12-08T10:48:25.322Z,970.31
2018-12-08T10:49:25.314Z,970.24
2018-12-08T10:50:25.299Z,970.35
2018-12-08T10:51:25.289Z,970.26
2018-12-08T10:52:25.290Z,970.24
2018-12-08T10:53:25.274Z,970.23
2018-12-08T10:54:25.239Z,970.40
2018-12-08T10:55:25.241Z,970.35
2018-12-08T10:56:25.227Z,970.19
2018-12-08T10:57:25.235Z,970.26
2018-12-08T10:58:25.204Z,970.25
2018-12-08T10:59:25.181Z,970.23
2018-12-08T11:00:25.182Z,970.23
2018-12-08T11:01:25.171Z,970.27
2018-12-08T11:02:25.175Z,970.21
2018-12-08T11:03:25.177Z,970.22
2018-12-08T11:04:25.137Z,970.14
2018-12-08T11:05:25.119Z,970.21
2018-12-08T11:06:25.114Z,970.21
2018-12-08T11:07:25.139Z,970.26
2018-12-08T11:08:25.094Z,970.17
2018-12-08T11:09:25.092Z,970.22
2018-12-08T11:10:25.070Z,970.25
2018-12-08T11:11:25.058Z,970.11
2018-12-08T11:12:25.048Z,970.22
2018-12-08T11:13:25.053Z,970.16
2018-12-08T11:14:25.024Z,970.15
2018-12-08T11:15:25.012Z,970.22
2018-12-08T11:16:25.001Z,970.13
2018-12-08T11:17:24.990Z,970.14
2018-12-08T11:18:24.996Z,970.02
2018-12-08T11:19:24.959Z,969.93
2018-12-08T11:20:24.957Z,969.97
2018-12-08T11:21:24.945Z,970.00
2018-12-08T11:22:24.934Z,969.98
2018-12-08T11:23:24.938Z,969.89
2018-12-08T11:24:24.918Z,969.92
2018-12-08T11:25:24.899Z,969.74
2018-12-08T11:26:24.889Z,969.85
2018-12-08T11:27:24.877Z,969.81
2018-12-08T11:28:24.882Z,969.87
2018-12-08T11:29:24.856Z,969.82
2018-12-08T11:30:24.845Z,969.80
2018-12-08T11:31:24.827Z,969.87
2018-12-08T11:32:24.824Z,969.86
2018-12-08T11:33:24.831Z,969.87
2018-12-08T11:34:24.801Z,969.79
2018-12-08T11:35:24.788Z,969.85
2018-12-08T11:36:24.779Z,969.70
2018-12-08T11:37:24.763Z,969.76
2018-12-08T11:38:24.764Z,969.76
2018-12-08T11:39:24.742Z,969.80
2018-12-08T11:40:24.730Z,969.77
2018-12-08T11:41:24.719Z,969.75
2018-12-08T11:42:25.742Z,969.73
2018-12-08T11:43:24.714Z,969.78
2018-12-08T11:44:24.685Z,969.73
2018-12-08T11:45:24.676Z,969.50
2018-12-08T11:46:24.667Z,969.55
2018-12-08T11:47:24.653Z,969.44
2018-12-08T11:48:24.652Z,969.65
2018-12-08T11:49:24.629Z,969.67
2018-12-08T11:50:24.618Z,969.74
2018-12-08T11:51:24.607Z,969.72
2018-12-08T11:52:24.594Z,969.75
2018-12-08T11:53:24.587Z,969.77
2018-12-08T11:54:24.572Z,969.90
2018-12-08T11:55:30.142Z,969.87
2018-12-08T11:56:25.545Z,969.94
2018-12-08T11:57:24.539Z,969.94
2018-12-08T11:58:24.554Z,969.87
2018-12-08T11:59:24.517Z,969.91
2018-12-08T12:00:24.516Z,969.99
2018-12-08T12:01:24.517Z,969.93
2018-12-08T12:02:24.485Z,969.81
2018-12-08T12:03:24.482Z,969.68
2018-12-08T12:04:24.458Z,969.57
2018-12-08T12:05:24.451Z,969.55
2018-12-08T12:06:24.438Z,969.68
2018-12-08T12:07:24.432Z,969.63
2018-12-08T12:08:24.424Z,969.64
2018-12-08T12:09:24.404Z,969.69
2018-12-08T12:10:24.391Z,969.56
2018-12-08T12:11:24.376Z,969.52
2018-12-08T12:12:24.374Z,969.47
2018-12-08T12:13:24.361Z,969.44
2018-12-08T12:14:24.348Z,969.44
2018-12-08T12:15:24.334Z,969.46
2018-12-08T12:16:24.321Z,969.49
2018-12-08T12:17:24.308Z,969.55
2018-12-08T12:18:24.314Z,969.53
2018-12-08T12:19:24.286Z,969.55
2018-12-08T12:20:24.274Z,969.57
2018-12-08T12:21:24.266Z,969.72
2018-12-08T12:22:24.251Z,969.70
2018-12-08T12:23:24.256Z,969.63
2018-12-08T12:24:24.228Z,969.59
2018-12-08T12:25:24.227Z,969.75
2018-12-08T12:26:24.211Z,969.83
2018-12-08T12:27:24.196Z,969.62
2018-12-08T12:28:24.198Z,969.56
2018-12-08T12:29:24.183Z,969.63
2018-12-08T12:30:24.161Z,969.61
2018-12-08T12:31:24.154Z,969.53
2018-12-08T12:32:24.139Z,969.57
2018-12-08T12:33:24.141Z,969.51
2018-12-08T12:34:24.115Z,969.57
2018-12-08T12:35:24.092Z,969.63
2018-12-08T12:36:24.094Z,969.61
2018-12-08T12:37:24.174Z,969.62
2018-12-08T12:38:24.087Z,969.73
2018-12-08T12:39:26.102Z,969.66
2018-12-08T12:40:24.046Z,969.75
2018-12-08T12:41:24.042Z,969.72
2018-12-08T12:42:24.022Z,969.53
2018-12-08T12:43:24.030Z,969.47
2018-12-08T12:44:24.006Z,969.57
2018-12-08T12:45:23.991Z,969.61
2018-12-08T12:46:23.979Z,969.67
2018-12-08T12:47:23.965Z,969.57
2018-12-08T12:48:23.971Z,969.56
2018-12-08T12:49:23.948Z,969.56
2018-12-08T12:50:23.937Z,969.45
2018-12-08T12:51:23.924Z,969.41
2018-12-08T12:52:23.910Z,969.44
2018-12-08T12:53:23.918Z,969.45
2018-12-08T12:54:23.891Z,969.46
2018-12-08T12:55:23.880Z,969.52
2018-12-08T12:56:23.868Z,969.41
2018-12-08T12:57:23.856Z,969.47
2018-12-08T12:58:23.857Z,969.43
2018-12-08T12:59:23.835Z,969.50
2018-12-08T13:00:23.823Z,969.45
2018-12-08T13:01:23.812Z,969.55
2018-12-08T13:02:23.799Z,969.46
2018-12-08T13:03:23.811Z,969.55
2018-12-08T13:04:23.776Z,969.52
2018-12-08T13:05:23.766Z,969.58
2018-12-08T13:06:23.754Z,969.53
2018-12-08T13:07:23.748Z,969.36
2018-12-08T13:08:23.735Z,969.39
2018-12-08T13:09:23.733Z,969.38
2018-12-08T13:10:23.713Z,969.33
2018-12-08T13:11:23.703Z,969.48
2018-12-08T13:12:23.686Z,969.45
2018-12-08T13:13:23.675Z,969.48
2018-12-08T13:14:23.715Z,969.53
2018-12-08T13:15:23.656Z,969.47
2018-12-08T13:16:23.637Z,969.40
2018-12-08T13:17:23.626Z,969.55
2018-12-08T13:18:23.615Z,969.54
2018-12-08T13:19:23.635Z,969.37
2018-12-08T13:20:23.592Z,969.29
2018-12-08T13:21:23.586Z,969.44
2018-12-08T13:22:23.572Z,969.33
2018-12-08T13:23:23.558Z,969.39
2018-12-08T13:24:23.564Z,969.38
2018-12-08T13:25:23.538Z,969.38
2018-12-08T13:26:23.536Z,969.47
2018-12-08T13:27:23.524Z,969.52
2018-12-08T13:28:23.502Z,969.48
2018-12-08T13:29:23.512Z,969.38
2018-12-08T13:30:23.482Z,969.43
2018-12-08T13:31:23.469Z,969.37
2018-12-08T13:32:23.456Z,969.26
2018-12-08T13:33:23.445Z,969.31
2018-12-08T13:34:23.448Z,969.31
2018-12-08T13:35:23.425Z,969.31
2018-12-08T13:36:23.412Z,969.30
2018-12-08T13:37:23.406Z,969.26
2018-12-08T13:38:23.531Z,969.34
2018-12-08T13:39:23.419Z,969.24
2018-12-08T13:40:23.362Z,969.28
2018-12-08T13:41:23.357Z,969.33
2018-12-08T13:42:23.346Z,969.26
2018-12-08T13:43:23.334Z,969.17
2018-12-08T13:44:23.333Z,969.16
2018-12-08T13:45:23.310Z,969.16
2018-12-08T13:46:23.298Z,969.32
2018-12-08T13:47:23.292Z,969.11
2018-12-08T13:48:23.276Z,969.32
2018-12-08T13:49:23.277Z,969.32
2018-12-08T13:50:23.253Z,969.11
2018-12-08T13:51:23.243Z,969.23
2018-12-08T13:52:23.231Z,969.15
2018-12-08T13:53:23.220Z,969.15
2018-12-08T13:54:23.224Z,969.17
2018-12-08T13:55:23.205Z,969.16
2018-12-08T13:56:23.186Z,969.23
2018-12-08T13:57:23.174Z,969.27
2018-12-08T13:58:23.163Z,969.19
2018-12-08T13:59:23.176Z,969.22
2018-12-08T14:00:23.318Z,969.26
2018-12-08T14:01:23.129Z,969.29
2018-12-08T14:02:23.276Z,969.18
2018-12-08T14:03:23.182Z,969.10
2018-12-08T14:04:23.108Z,969.25
2018-12-08T14:05:23.092Z,969.17
2018-12-08T14:06:23.061Z,969.18
2018-12-08T14:07:23.075Z,969.15
2018-12-08T14:08:23.153Z,969.23
2018-12-08T14:09:23.048Z,969.19
2018-12-08T14:10:23.029Z,969.30
2018-12-08T14:11:23.013Z,969.23
2018-12-08T14:12:23.003Z,969.25
2018-12-08T14:13:22.991Z,969.09
2018-12-08T14:14:22.999Z,969.11
2018-12-08T14:15:22.969Z,969.16
2018-12-08T14:16:22.955Z,969.15
2018-12-08T14:17:22.948Z,969.22
2018-12-08T14:18:22.937Z,969.16
2018-12-08T14:19:22.938Z,969.17
2018-12-08T14:20:22.911Z,969.16
2018-12-08T14:21:22.908Z,969.23
2018-12-08T14:22:22.892Z,969.25
2018-12-08T14:23:22.882Z,969.31
2018-12-08T14:24:22.885Z,969.09
2018-12-08T14:25:22.850Z,969.26
2018-12-08T14:26:22.845Z,969.23
2018-12-08T14:27:22.832Z,969.26
2018-12-08T14:28:22.826Z,969.16
2018-12-08T14:29:22.829Z,969.26
2018-12-08T14:30:22.798Z,969.25
2018-12-08T14:31:22.787Z,969.28
2018-12-08T14:32:22.781Z,969.29
2018-12-08T14:33:22.772Z,969.17
2018-12-08T14:34:22.785Z,969.23
2018-12-08T14:35:22.748Z,969.22
2018-12-08T14:36:22.734Z,969.24
2018-12-08T14:37:22.719Z,969.32
2018-12-08T14:38:22.711Z,969.22
2018-12-08T14:39:22.730Z,969.17
2018-12-08T14:40:22.689Z,969.21
2018-12-08T14:41:22.679Z,969.23
2018-12-08T14:42:22.665Z,969.44
2018-12-08T14:43:22.668Z,969.33
2018-12-08T14:44:22.669Z,969.30
2018-12-08T14:45:22.634Z,969.37
2018-12-08T14:46:22.626Z,969.27
2018-12-08T14:47:22.619Z,969.27
2018-12-08T14:48:22.599Z,969.26
2018-12-08T14:49:22.613Z,969.39
2018-12-08T14:50:22.573Z,969.39
2018-12-08T14:51:22.565Z,969.38
2018-12-08T14:52:22.553Z,969.35
2018-12-08T14:53:22.554Z,969.37
2018-12-08T14:54:22.572Z,969.37
2018-12-08T14:55:22.517Z,969.43
2018-12-08T14:56:22.519Z,969.35
2018-12-08T14:57:22.499Z,969.36
2018-12-08T14:58:22.484Z,969.28
2018-12-08T14:59:22.501Z,969.38
2018-12-08T15:00:22.469Z,969.27
2018-12-08T15:01:22.455Z,969.34
2018-12-08T15:02:22.438Z,969.38
2018-12-08T15:03:22.431Z,969.36
2018-12-08T15:04:22.460Z,969.36
2018-12-08T15:05:22.407Z,969.33
2018-12-08T15:06:22.401Z,969.41
2018-12-08T15:07:22.380Z,969.38
2018-12-08T15:08:22.373Z,969.28
2018-12-08T15:09:22.406Z,969.35
2018-12-08T15:10:22.356Z,969.30
2018-12-08T15:11:22.353Z,969.35
2018-12-08T15:12:22.348Z,969.34
2018-12-08T15:13:22.313Z,969.39
2018-12-08T15:14:22.321Z,969.30
2018-12-08T15:15:22.297Z,969.31
2018-12-08T15:16:22.283Z,969.43
2018-12-08T15:17:22.275Z,969.33
2018-12-08T15:18:22.264Z,969.49
2018-12-08T15:19:22.299Z,969.38
2018-12-08T15:20:22.239Z,969.42
2018-12-08T15:21:22.244Z,969.39
2018-12-08T15:22:22.218Z,969.51
2018-12-08T15:23:22.208Z,969.57
2018-12-08T15:24:22.194Z,969.65
2018-12-08T15:25:22.199Z,969.50
2018-12-08T15:26:22.170Z,969.49
2018-12-08T15:27:22.158Z,969.33
2018-12-08T15:28:22.147Z,969.37
2018-12-08T15:29:22.169Z,969.21
2018-12-08T15:30:22.140Z,969.20
2018-12-08T15:31:22.111Z,969.26
2018-12-08T15:32:22.099Z,969.20
2018-12-08T15:33:22.085Z,969.17
2018-12-08T15:34:22.083Z,969.21
2018-12-08T15:35:22.097Z,969.17
2018-12-08T15:36:22.058Z,969.20
2018-12-08T15:37:22.031Z,969.22
2018-12-08T15:38:22.028Z,969.25
2018-12-08T15:39:22.017Z,969.15
2018-12-08T15:40:22.025Z,969.24
2018-12-08T15:41:22.005Z,969.26
2018-12-08T15:42:21.990Z,969.21
2018-12-08T15:43:21.993Z,969.27
2018-12-08T15:44:21.994Z,969.29
2018-12-08T15:45:21.991Z,969.32
2018-12-08T15:46:21.965Z,969.28
2018-12-08T15:47:21.925Z,969.30
2018-12-08T15:48:21.914Z,969.23
2018-12-08T15:49:21.906Z,969.42
2018-12-08T15:50:21.920Z,969.24
2018-12-08T15:51:21.887Z,969.25
2018-12-08T15:52:21.885Z,969.34
2018-12-08T15:53:21.857Z,969.33
2018-12-08T15:54:21.851Z,969.24
2018-12-08T15:55:21.863Z,969.32
2018-12-08T15:56:21.835Z,969.29
2018-12-08T15:57:21.816Z,969.38
2018-12-08T15:58:21.804Z,969.27
2018-12-08T15:59:21.797Z,969.36
2018-12-08T16:00:21.822Z,969.22
2018-12-08T16:01:21.771Z,969.29
2018-12-08T16:02:21.763Z,969.26
2018-12-08T16:03:21.749Z,969.23
2018-12-08T16:04:21.741Z,969.25
2018-12-08T16:05:21.745Z,969.34
2018-12-08T16:06:21.714Z,969.28
2018-12-08T16:07:21.720Z,969.30
2018-12-08T16:08:21.697Z,969.33
2018-12-08T16:09:21.682Z,969.38
2018-12-08T16:10:21.697Z,969.39
2018-12-08T16:11:21.655Z,969.31
2018-12-08T16:12:21.646Z,969.46
2018-12-08T16:13:21.635Z,969.37
2018-12-08T16:14:21.621Z,969.40
2018-12-08T16:15:21.644Z,969.36
2018-12-08T16:16:21.606Z,969.35
2018-12-08T16:17:21.597Z,969.45
2018-12-08T16:18:21.579Z,969.43
2018-12-08T16:19:21.564Z,969.42
2018-12-08T16:20:21.577Z,969.55
2018-12-08T16:21:21.542Z,969.45
2018-12-08T16:22:21.546Z,969.44
2018-12-08T16:23:21.523Z,969.50
2018-12-08T16:24:21.511Z,969.54
2018-12-08T16:25:21.517Z,969.38
2018-12-08T16:26:21.492Z,969.43
2018-12-08T16:27:21.480Z,969.38
2018-12-08T16:28:21.465Z,969.49
2018-12-08T16:29:21.479Z,969.48
2018-12-08T16:30:21.463Z,969.39
2018-12-08T16:31:21.433Z,969.37
2018-12-08T16:32:21.430Z,969.40
2018-12-08T16:33:21.408Z,969.45
2018-12-08T16:34:21.398Z,969.39
2018-12-08T16:35:21.404Z,969.39
2018-12-08T16:36:21.376Z,969.50
2018-12-08T16:37:21.367Z,969.52
2018-12-08T16:38:21.357Z,969.49
2018-12-08T16:39:21.346Z,969.43
2018-12-08T16:40:21.384Z,969.41
2018-12-08T16:41:21.320Z,969.38
2018-12-08T16:42:21.317Z,969.33
2018-12-08T16:43:21.296Z,969.33
2018-12-08T16:44:21.277Z,969.18
2018-12-08T16:45:21.297Z,969.25
2018-12-08T16:46:21.261Z,969.25
2018-12-08T16:47:21.269Z,969.36
2018-12-08T16:48:21.240Z,969.30
2018-12-08T16:49:21.232Z,969.40
2018-12-08T16:50:21.233Z,969.28
2018-12-08T16:51:21.198Z,969.22
2018-12-08T16:52:21.187Z,969.21
2018-12-08T16:53:21.176Z,969.24
2018-12-08T16:54:21.164Z,969.34
2018-12-08T16:55:21.169Z,969.32
2018-12-08T16:56:21.142Z,969.43
2018-12-08T16:57:21.132Z,969.20
2018-12-08T16:58:21.119Z,969.40
2018-12-08T16:59:21.110Z,969.48
2018-12-08T17:00:21.117Z,969.43
2018-12-08T17:01:21.085Z,969.34
2018-12-08T17:02:21.073Z,969.36
2018-12-08T17:03:21.068Z,969.43
2018-12-08T17:04:21.052Z,969.39
2018-12-08T17:05:21.051Z,969.40
2018-12-08T17:06:21.029Z,969.12
2018-12-08T17:07:21.018Z,969.16
2018-12-08T17:08:21.008Z,969.18
2018-12-08T17:09:20.998Z,969.26
2018-12-08T17:10:20.995Z,969.33
2018-12-08T17:11:20.974Z,969.34
2018-12-08T17:12:20.963Z,969.32
2018-12-08T17:13:20.950Z,969.15
2018-12-08T17:14:20.938Z,969.12
2018-12-08T17:15:21.007Z,969.30
2018-12-08T17:16:20.921Z,969.31
2018-12-08T17:17:20.907Z,969.31
2018-12-08T17:18:20.893Z,969.24
2018-12-08T17:19:20.886Z,969.20
2018-12-08T17:20:20.914Z,969.19
2018-12-08T17:21:20.863Z,969.21
2018-12-08T17:22:20.848Z,969.15
2018-12-08T17:23:20.836Z,969.16
2018-12-08T17:24:20.825Z,969.13
2018-12-08T17:25:20.821Z,969.09
2018-12-08T17:26:20.821Z,969.01
2018-12-08T17:27:20.792Z,969.05
2018-12-08T17:28:20.784Z,969.05